Terminal Aerodrome Forecast
Issued by NWS Wilmington, OH

Home | Current Version | Previous Version | Text Only | Print | Product List | Glossary On
Versions: 1 2 3 4 5 6 7 8 9 10 11 12 13 14 15 16 17 18 19 20 21 22 23 24
000
FTUS41 KILN 071700 RRA
TAFCVG
TAF
KCVG 071751Z 0718/0824 22012G22KT P6SM VCSH BKN020 BKN030
      TEMPO 0720/0724 5SM -TSRA BR OVC020CB
     FM080000 24010KT 5SM -SHRA BR VCTS OVC035CB
     FM081000 26010KT 5SM -SHRA BR OVC025
     FM081300 28008KT P6SM VCSH OVC018=

USA.gov is the U.S. government's official web portal to all federal, state and local government web resources and services.